Mine Centre, Canada
Current Conditions -  °F | °C
As of 5:13 AM on Friday 24 Oct 2014 (Local Time) from KCDD Reporting Station
Clear Clear  
Wind Chill: 50°   Ceiling: Unl
Heat Index: 50°   Visibility: 10mi
Dew Point: 43°   Wind: 0mph
Humidity: 76%   Direction: NA
Pressure: 29.82"   Gusts: NA
Location:  48.76°N, 92.64°W
Report Text: KCDD 241013Z AUTO 00000KT 10SM CLR 10/06 A2982 RMK AO2
Loading
Personal Weather Stations






























Interactive Weather Map
Tropical Storm Tracking
New forecast layout! Learn more

10-Day Weather Forecast

Advertisements
Track Severe Weather on mobile